sensor_id;sensor_type;location;lat;lon;timestamp;P1;durP1;ratioP1;P2;durP2;ratioP2
69765;SDS011;57039;48.014;21.384;2022-12-07T00:01:03;16.00;;;9.57;;
69765;SDS011;57039;48.014;21.384;2022-12-07T00:02:10;17.17;;;9.32;;
69765;SDS011;57039;48.014;21.384;2022-12-07T00:03:13;15.83;;;8.30;;
69765;SDS011;57039;48.014;21.384;2022-12-07T00:04:16;16.23;;;9.13;;
69765;SDS011;57039;48.014;21.384;2022-12-07T00:05:21;17.75;;;8.68;;
69765;SDS011;57039;48.014;21.384;2022-12-07T00:06:24;14.68;;;8.73;;
69765;SDS011;57039;48.014;21.384;2022-12-07T00:07:27;18.65;;;9.23;;
69765;SDS011;57039;48.014;21.384;2022-12-07T00:08:30;17.12;;;9.70;;
69765;SDS011;57039;48.014;21.384;2022-12-07T00:09:34;17.27;;;9.05;;
69765;SDS011;57039;48.014;21.384;2022-12-07T00:10:36;17.70;;;10.40;;
69765;SDS011;57039;48.014;21.384;2022-12-07T00:11:39;17.70;;;9.68;;
69765;SDS011;57039;48.014;21.384;2022-12-07T00:12:42;18.70;;;9.60;;
69765;SDS011;57039;48.014;21.384;2022-12-07T00:13:46;17.83;;;10.03;;
69765;SDS011;57039;48.014;21.384;2022-12-07T00:14:49;16.33;;;10.30;;
69765;SDS011;57039;48.014;21.384;2022-12-07T00:15:52;15.98;;;9.48;;
69765;SDS011;57039;48.014;21.384;2022-12-07T00:16:55;16.20;;;9.50;;
69765;SDS011;57039;48.014;21.384;2022-12-07T00:17:58;16.98;;;9.98;;
69765;SDS011;57039;48.014;21.384;2022-12-07T00:19:01;17.85;;;9.57;;
69765;SDS011;57039;48.014;21.384;2022-12-07T00:20:05;15.63;;;9.13;;
69765;SDS011;57039;48.014;21.384;2022-12-07T00:22:16;18.10;;;9.15;;
69765;SDS011;57039;48.014;21.384;2022-12-07T00:23:19;16.12;;;9.30;;
69765;SDS011;57039;48.014;21.384;2022-12-07T00:24:22;16.13;;;8.53;;
69765;SDS011;57039;48.014;21.384;2022-12-07T00:25:25;18.35;;;10.10;;
69765;SDS011;57039;48.014;21.384;2022-12-07T00:26:29;17.62;;;9.25;;
69765;SDS011;57039;48.014;21.384;2022-12-07T00:27:34;15.75;;;9.27;;
69765;SDS011;57039;48.014;21.384;2022-12-07T00:28:37;18.83;;;10.27;;
69765;SDS011;57039;48.014;21.384;2022-12-07T00:29:40;17.62;;;9.80;;
69765;SDS011;57039;48.014;21.384;2022-12-07T00:30:43;16.10;;;9.27;;
69765;SDS011;57039;48.014;21.384;2022-12-07T00:31:46;16.70;;;9.95;;
69765;SDS011;57039;48.014;21.384;2022-12-07T00:32:49;17.45;;;10.68;;
69765;SDS011;57039;48.014;21.384;2022-12-07T00:33:53;19.30;;;10.70;;
69765;SDS011;57039;48.014;21.384;2022-12-07T00:34:56;17.70;;;9.80;;
69765;SDS011;57039;48.014;21.384;2022-12-07T00:35:59;18.02;;;9.80;;
69765;SDS011;57039;48.014;21.384;2022-12-07T00:37:02;17.37;;;9.27;;
69765;SDS011;57039;48.014;21.384;2022-12-07T00:38:05;16.92;;;9.60;;
69765;SDS011;57039;48.014;21.384;2022-12-07T00:39:08;19.60;;;10.00;;
69765;SDS011;57039;48.014;21.384;2022-12-07T00:40:11;20.25;;;10.45;;
69765;SDS011;57039;48.014;21.384;2022-12-07T00:41:15;19.00;;;9.93;;
69765;SDS011;57039;48.014;21.384;2022-12-07T00:42:22;17.98;;;9.73;;
69765;SDS011;57039;48.014;21.384;2022-12-07T00:43:25;15.63;;;9.23;;
69765;SDS011;57039;48.014;21.384;2022-12-07T00:44:28;18.17;;;10.30;;
69765;SDS011;57039;48.014;21.384;2022-12-07T00:45:31;23.23;;;10.87;;
69765;SDS011;57039;48.014;21.384;2022-12-07T00:46:34;18.52;;;10.23;;
69765;SDS011;57039;48.014;21.384;2022-12-07T00:47:37;18.37;;;10.55;;
69765;SDS011;57039;48.014;21.384;2022-12-07T00:48:40;19.10;;;11.73;;
69765;SDS011;57039;48.014;21.384;2022-12-07T00:49:43;22.08;;;11.50;;
69765;SDS011;57039;48.014;21.384;2022-12-07T00:50:46;17.42;;;10.48;;
69765;SDS011;57039;48.014;21.384;2022-12-07T00:51:49;18.62;;;9.75;;
69765;SDS011;57039;48.014;21.384;2022-12-07T00:52:51;20.37;;;11.77;;
69765;SDS011;57039;48.014;21.384;2022-12-07T00:53:54;19.40;;;11.05;;
69765;SDS011;57039;48.014;21.384;2022-12-07T00:54:57;19.80;;;11.68;;
69765;SDS011;57039;48.014;21.384;2022-12-07T00:56:11;17.93;;;10.23;;
69765;SDS011;57039;48.014;21.384;2022-12-07T00:57:15;17.40;;;10.02;;
69765;SDS011;57039;48.014;21.384;2022-12-07T00:58:18;17.48;;;8.50;;
69765;SDS011;57039;48.014;21.384;2022-12-07T00:59:21;16.50;;;8.95;;
69765;SDS011;57039;48.014;21.384;2022-12-07T01:00:24;15.35;;;8.60;;
69765;SDS011;57039;48.014;21.384;2022-12-07T01:01:28;15.23;;;8.48;;
69765;SDS011;57039;48.014;21.384;2022-12-07T01:02:33;15.95;;;9.13;;
69765;SDS011;57039;48.014;21.384;2022-12-07T01:03:36;14.82;;;8.68;;
69765;SDS011;57039;48.014;21.384;2022-12-07T01:04:39;14.95;;;8.60;;
69765;SDS011;57039;48.014;21.384;2022-12-07T01:05:49;15.93;;;8.93;;
69765;SDS011;57039;48.014;21.384;2022-12-07T01:06:53;16.20;;;8.63;;
69765;SDS011;57039;48.014;21.384;2022-12-07T01:08:00;17.50;;;9.37;;
69765;SDS011;57039;48.014;21.384;2022-12-07T01:09:03;16.65;;;9.02;;
69765;SDS011;57039;48.014;21.384;2022-12-07T01:10:07;16.80;;;9.32;;
69765;SDS011;57039;48.014;21.384;2022-12-07T01:11:12;16.30;;;9.18;;
69765;SDS011;57039;48.014;21.384;2022-12-07T01:12:18;16.08;;;9.35;;
69765;SDS011;57039;48.014;21.384;2022-12-07T01:13:21;15.88;;;8.77;;
69765;SDS011;57039;48.014;21.384;2022-12-07T01:14:23;14.82;;;9.05;;
69765;SDS011;57039;48.014;21.384;2022-12-07T01:15:26;15.38;;;8.80;;
69765;SDS011;57039;48.014;21.384;2022-12-07T01:16:29;15.77;;;9.38;;
69765;SDS011;57039;48.014;21.384;2022-12-07T01:17:34;15.03;;;9.17;;
69765;SDS011;57039;48.014;21.384;2022-12-07T01:18:37;18.00;;;9.93;;
69765;SDS011;57039;48.014;21.384;2022-12-07T01:19:40;18.85;;;8.52;;
69765;SDS011;57039;48.014;21.384;2022-12-07T01:20:43;16.85;;;8.63;;
69765;SDS011;57039;48.014;21.384;2022-12-07T01:21:46;19.25;;;9.93;;
69765;SDS011;57039;48.014;21.384;2022-12-07T01:22:48;18.27;;;9.35;;
69765;SDS011;57039;48.014;21.384;2022-12-07T01:23:51;15.98;;;8.45;;
69765;SDS011;57039;48.014;21.384;2022-12-07T01:24:54;16.05;;;8.27;;
69765;SDS011;57039;48.014;21.384;2022-12-07T01:25:57;15.10;;;8.60;;
69765;SDS011;57039;48.014;21.384;2022-12-07T01:27:02;13.10;;;7.82;;
69765;SDS011;57039;48.014;21.384;2022-12-07T01:28:04;15.97;;;8.83;;
69765;SDS011;57039;48.014;21.384;2022-12-07T01:29:07;17.50;;;9.32;;
69765;SDS011;57039;48.014;21.384;2022-12-07T01:30:10;13.98;;;7.72;;
69765;SDS011;57039;48.014;21.384;2022-12-07T01:31:15;15.05;;;8.60;;
69765;SDS011;57039;48.014;21.384;2022-12-07T01:32:22;16.17;;;9.13;;
69765;SDS011;57039;48.014;21.384;2022-12-07T01:33:26;17.80;;;9.15;;
69765;SDS011;57039;48.014;21.384;2022-12-07T01:34:30;15.02;;;8.48;;
69765;SDS011;57039;48.014;21.384;2022-12-07T01:35:33;14.50;;;7.60;;
69765;SDS011;57039;48.014;21.384;2022-12-07T01:36:36;16.12;;;8.80;;
69765;SDS011;57039;48.014;21.384;2022-12-07T01:37:40;16.23;;;7.93;;
69765;SDS011;57039;48.014;21.384;2022-12-07T01:38:43;15.27;;;8.40;;
69765;SDS011;57039;48.014;21.384;2022-12-07T01:39:50;15.85;;;8.80;;
69765;SDS011;57039;48.014;21.384;2022-12-07T01:40:54;14.57;;;8.15;;
69765;SDS011;57039;48.014;21.384;2022-12-07T01:41:58;17.35;;;8.77;;
69765;SDS011;57039;48.014;21.384;2022-12-07T01:43:01;16.27;;;8.77;;
69765;SDS011;57039;48.014;21.384;2022-12-07T01:46:19;13.73;;;7.60;;
69765;SDS011;57039;48.014;21.384;2022-12-07T01:47:22;14.87;;;8.00;;
69765;SDS011;57039;48.014;21.384;2022-12-07T01:48:27;16.27;;;8.63;;
69765;SDS011;57039;48.014;21.384;2022-12-07T01:49:42;15.87;;;8.60;;
69765;SDS011;57039;48.014;21.384;2022-12-07T01:50:47;15.07;;;7.68;;
69765;SDS011;57039;48.014;21.384;2022-12-07T01:51:55;16.77;;;8.35;;
69765;SDS011;57039;48.014;21.384;2022-12-07T01:53:04;16.92;;;8.63;;
69765;SDS011;57039;48.014;21.384;2022-12-07T01:54:12;15.93;;;8.27;;
69765;SDS011;57039;48.014;21.384;2022-12-07T01:55:16;14.43;;;7.53;;
69765;SDS011;57039;48.014;21.384;2022-12-07T01:56:20;17.90;;;8.52;;
69765;SDS011;57039;48.014;21.384;2022-12-07T01:57:28;16.05;;;7.87;;
69765;SDS011;57039;48.014;21.384;2022-12-07T01:58:33;15.85;;;8.68;;
69765;SDS011;57039;48.014;21.384;2022-12-07T01:59:36;16.95;;;8.70;;
69765;SDS011;57039;48.014;21.384;2022-12-07T02:00:39;17.03;;;9.17;;
69765;SDS011;57039;48.014;21.384;2022-12-07T02:01:43;15.93;;;8.65;;
69765;SDS011;57039;48.014;21.384;2022-12-07T02:02:51;15.75;;;8.73;;
69765;SDS011;57039;48.014;21.384;2022-12-07T02:03:57;15.80;;;8.00;;
69765;SDS011;57039;48.014;21.384;2022-12-07T02:05:01;16.48;;;9.20;;
69765;SDS011;57039;48.014;21.384;2022-12-07T02:06:06;15.88;;;8.65;;
69765;SDS011;57039;48.014;21.384;2022-12-07T02:07:10;22.30;;;10.52;;
69765;SDS011;57039;48.014;21.384;2022-12-07T02:08:13;22.75;;;10.95;;
69765;SDS011;57039;48.014;21.384;2022-12-07T02:09:16;24.33;;;11.57;;
69765;SDS011;57039;48.014;21.384;2022-12-07T02:10:23;28.77;;;12.13;;
69765;SDS011;57039;48.014;21.384;2022-12-07T02:11:27;28.93;;;11.03;;
69765;SDS011;57039;48.014;21.384;2022-12-07T02:12:30;24.52;;;12.23;;
69765;SDS011;57039;48.014;21.384;2022-12-07T02:13:34;25.08;;;10.40;;
69765;SDS011;57039;48.014;21.384;2022-12-07T02:14:39;23.83;;;11.40;;
69765;SDS011;57039;48.014;21.384;2022-12-07T02:19:49;16.90;;;8.98;;
69765;SDS011;57039;48.014;21.384;2022-12-07T02:21:19;14.95;;;7.93;;
69765;SDS011;57039;48.014;21.384;2022-12-07T02:30:51;17.02;;;8.75;;
69765;SDS011;57039;48.014;21.384;2022-12-07T02:33:19;17.45;;;8.52;;
69765;SDS011;57039;48.014;21.384;2022-12-07T02:34:39;16.10;;;8.63;;
69765;SDS011;57039;48.014;21.384;2022-12-07T02:40:02;14.90;;;8.38;;
69765;SDS011;57039;48.014;21.384;2022-12-07T02:41:21;15.90;;;8.13;;
69765;SDS011;57039;48.014;21.384;2022-12-07T02:42:35;15.32;;;8.40;;
69765;SDS011;57039;48.014;21.384;2022-12-07T02:43:43;16.87;;;8.57;;
69765;SDS011;57039;48.014;21.384;2022-12-07T02:44:50;15.02;;;8.35;;
69765;SDS011;57039;48.014;21.384;2022-12-07T02:45:55;16.08;;;9.30;;
69765;SDS011;57039;48.014;21.384;2022-12-07T02:47:05;18.48;;;9.55;;
69765;SDS011;57039;48.014;21.384;2022-12-07T02:48:13;17.67;;;9.70;;
69765;SDS011;57039;48.014;21.384;2022-12-07T02:49:17;17.77;;;9.13;;
69765;SDS011;57039;48.014;21.384;2022-12-07T02:50:21;17.05;;;8.63;;
69765;SDS011;57039;48.014;21.384;2022-12-07T02:51:24;17.55;;;8.82;;
69765;SDS011;57039;48.014;21.384;2022-12-07T02:52:28;18.15;;;9.70;;
69765;SDS011;57039;48.014;21.384;2022-12-07T02:53:35;15.73;;;8.98;;
69765;SDS011;57039;48.014;21.384;2022-12-07T02:54:39;16.92;;;8.73;;
69765;SDS011;57039;48.014;21.384;2022-12-07T02:55:42;19.37;;;9.25;;
69765;SDS011;57039;48.014;21.384;2022-12-07T03:03:39;15.85;;;9.10;;
69765;SDS011;57039;48.014;21.384;2022-12-07T03:06:09;34.17;;;17.73;;
69765;SDS011;57039;48.014;21.384;2022-12-07T03:07:38;46.05;;;23.67;;
69765;SDS011;57039;48.014;21.384;2022-12-07T03:08:54;75.00;;;36.45;;
69765;SDS011;57039;48.014;21.384;2022-12-07T03:11:28;20.60;;;10.57;;
69765;SDS011;57039;48.014;21.384;2022-12-07T03:12:42;18.10;;;9.95;;
69765;SDS011;57039;48.014;21.384;2022-12-07T03:15:25;16.08;;;8.35;;
69765;SDS011;57039;48.014;21.384;2022-12-07T03:16:37;14.80;;;8.70;;
69765;SDS011;57039;48.014;21.384;2022-12-07T03:17:45;15.82;;;9.13;;
69765;SDS011;57039;48.014;21.384;2022-12-07T03:20:00;18.05;;;8.52;;
69765;SDS011;57039;48.014;21.384;2022-12-07T03:21:09;16.83;;;8.90;;
69765;SDS011;57039;48.014;21.384;2022-12-07T03:22:15;15.25;;;8.45;;
69765;SDS011;57039;48.014;21.384;2022-12-07T03:23:21;15.63;;;9.07;;
69765;SDS011;57039;48.014;21.384;2022-12-07T03:24:33;16.95;;;9.55;;
69765;SDS011;57039;48.014;21.384;2022-12-07T03:25:40;17.47;;;9.43;;
69765;SDS011;57039;48.014;21.384;2022-12-07T03:26:50;15.95;;;8.93;;
69765;SDS011;57039;48.014;21.384;2022-12-07T03:27:57;17.50;;;8.63;;
69765;SDS011;57039;48.014;21.384;2022-12-07T03:30:55;15.35;;;8.55;;
69765;SDS011;57039;48.014;21.384;2022-12-07T03:32:02;17.27;;;9.02;;
69765;SDS011;57039;48.014;21.384;2022-12-07T03:33:29;16.50;;;8.13;;
69765;SDS011;57039;48.014;21.384;2022-12-07T03:34:40;14.95;;;8.25;;
69765;SDS011;57039;48.014;21.384;2022-12-07T03:37:18;17.37;;;9.05;;
69765;SDS011;57039;48.014;21.384;2022-12-07T03:38:37;15.47;;;8.30;;
69765;SDS011;57039;48.014;21.384;2022-12-07T03:39:46;15.60;;;8.65;;
69765;SDS011;57039;48.014;21.384;2022-12-07T03:41:08;15.80;;;8.23;;
69765;SDS011;57039;48.014;21.384;2022-12-07T03:42:16;14.60;;;8.90;;
69765;SDS011;57039;48.014;21.384;2022-12-07T03:43:20;17.27;;;9.63;;
69765;SDS011;57039;48.014;21.384;2022-12-07T03:44:23;17.02;;;9.50;;
69765;SDS011;57039;48.014;21.384;2022-12-07T03:45:39;15.38;;;9.05;;
69765;SDS011;57039;48.014;21.384;2022-12-07T03:46:52;15.80;;;8.90;;
69765;SDS011;57039;48.014;21.384;2022-12-07T03:48:29;15.35;;;8.65;;
69765;SDS011;57039;48.014;21.384;2022-12-07T03:49:51;16.25;;;9.20;;
69765;SDS011;57039;48.014;21.384;2022-12-07T03:51:11;16.40;;;8.43;;
69765;SDS011;57039;48.014;21.384;2022-12-07T03:52:32;18.73;;;9.70;;
69765;SDS011;57039;48.014;21.384;2022-12-07T03:55:32;16.80;;;8.57;;
69765;SDS011;57039;48.014;21.384;2022-12-07T03:56:41;15.70;;;8.85;;
69765;SDS011;57039;48.014;21.384;2022-12-07T03:57:48;16.67;;;9.20;;
69765;SDS011;57039;48.014;21.384;2022-12-07T03:58:54;16.90;;;9.40;;
69765;SDS011;57039;48.014;21.384;2022-12-07T03:59:57;19.37;;;9.98;;
69765;SDS011;57039;48.014;21.384;2022-12-07T04:01:00;15.23;;;9.15;;
69765;SDS011;57039;48.014;21.384;2022-12-07T04:02:04;18.50;;;10.23;;
69765;SDS011;57039;48.014;21.384;2022-12-07T04:03:09;19.13;;;10.17;;
69765;SDS011;57039;48.014;21.384;2022-12-07T04:04:12;19.25;;;11.12;;
69765;SDS011;57039;48.014;21.384;2022-12-07T04:05:15;18.60;;;9.45;;
69765;SDS011;57039;48.014;21.384;2022-12-07T04:06:18;17.27;;;10.52;;
69765;SDS011;57039;48.014;21.384;2022-12-07T04:07:21;19.92;;;10.55;;
69765;SDS011;57039;48.014;21.384;2022-12-07T04:08:24;18.05;;;10.18;;
69765;SDS011;57039;48.014;21.384;2022-12-07T04:09:27;18.58;;;10.10;;
69765;SDS011;57039;48.014;21.384;2022-12-07T04:10:30;18.05;;;10.43;;
69765;SDS011;57039;48.014;21.384;2022-12-07T04:11:33;20.88;;;10.27;;
69765;SDS011;57039;48.014;21.384;2022-12-07T04:12:35;18.65;;;10.52;;
69765;SDS011;57039;48.014;21.384;2022-12-07T04:13:38;17.27;;;10.07;;
69765;SDS011;57039;48.014;21.384;2022-12-07T04:14:59;18.20;;;10.25;;
69765;SDS011;57039;48.014;21.384;2022-12-07T04:16:02;20.40;;;10.88;;
69765;SDS011;57039;48.014;21.384;2022-12-07T04:17:05;21.77;;;11.30;;
69765;SDS011;57039;48.014;21.384;2022-12-07T04:18:09;19.55;;;11.52;;
69765;SDS011;57039;48.014;21.384;2022-12-07T04:19:12;18.58;;;11.05;;
69765;SDS011;57039;48.014;21.384;2022-12-07T04:20:16;21.40;;;11.63;;
69765;SDS011;57039;48.014;21.384;2022-12-07T04:21:19;22.83;;;12.10;;
69765;SDS011;57039;48.014;21.384;2022-12-07T04:22:22;22.02;;;11.82;;
69765;SDS011;57039;48.014;21.384;2022-12-07T04:23:25;22.48;;;11.27;;
69765;SDS011;57039;48.014;21.384;2022-12-07T04:24:28;20.57;;;11.30;;
69765;SDS011;57039;48.014;21.384;2022-12-07T04:25:31;20.00;;;11.50;;
69765;SDS011;57039;48.014;21.384;2022-12-07T04:26:33;21.10;;;11.40;;
69765;SDS011;57039;48.014;21.384;2022-12-07T04:27:36;22.20;;;11.35;;
69765;SDS011;57039;48.014;21.384;2022-12-07T04:28:39;21.27;;;12.07;;
69765;SDS011;57039;48.014;21.384;2022-12-07T04:29:42;23.83;;;12.60;;
69765;SDS011;57039;48.014;21.384;2022-12-07T04:30:45;23.67;;;12.40;;
69765;SDS011;57039;48.014;21.384;2022-12-07T04:31:48;21.45;;;12.13;;
69765;SDS011;57039;48.014;21.384;2022-12-07T04:32:51;23.05;;;12.27;;
69765;SDS011;57039;48.014;21.384;2022-12-07T04:33:54;20.35;;;11.57;;
69765;SDS011;57039;48.014;21.384;2022-12-07T04:34:57;23.10;;;11.43;;
69765;SDS011;57039;48.014;21.384;2022-12-07T04:35:59;22.20;;;12.02;;
69765;SDS011;57039;48.014;21.384;2022-12-07T04:37:02;24.08;;;12.37;;
69765;SDS011;57039;48.014;21.384;2022-12-07T04:38:05;23.27;;;11.65;;
69765;SDS011;57039;48.014;21.384;2022-12-07T04:39:13;23.73;;;13.75;;
69765;SDS011;57039;48.014;21.384;2022-12-07T04:40:26;23.73;;;13.02;;
69765;SDS011;57039;48.014;21.384;2022-12-07T04:41:29;21.40;;;12.13;;
69765;SDS011;57039;48.014;21.384;2022-12-07T04:42:32;22.92;;;12.57;;
69765;SDS011;57039;48.014;21.384;2022-12-07T04:43:35;24.10;;;13.02;;
69765;SDS011;57039;48.014;21.384;2022-12-07T04:44:38;24.90;;;13.75;;
69765;SDS011;57039;48.014;21.384;2022-12-07T04:45:45;23.17;;;12.53;;
69765;SDS011;57039;48.014;21.384;2022-12-07T04:46:51;23.27;;;12.93;;
69765;SDS011;57039;48.014;21.384;2022-12-07T04:47:54;24.75;;;13.48;;
69765;SDS011;57039;48.014;21.384;2022-12-07T04:48:57;24.05;;;13.05;;
69765;SDS011;57039;48.014;21.384;2022-12-07T04:50:01;24.00;;;13.23;;
69765;SDS011;57039;48.014;21.384;2022-12-07T04:51:04;23.17;;;12.65;;
69765;SDS011;57039;48.014;21.384;2022-12-07T04:52:07;23.92;;;12.63;;
69765;SDS011;57039;48.014;21.384;2022-12-07T04:53:09;25.33;;;14.38;;
69765;SDS011;57039;48.014;21.384;2022-12-07T04:54:13;27.35;;;14.05;;
69765;SDS011;57039;48.014;21.384;2022-12-07T04:55:17;23.15;;;13.15;;
69765;SDS011;57039;48.014;21.384;2022-12-07T04:56:20;23.53;;;12.43;;
69765;SDS011;57039;48.014;21.384;2022-12-07T04:57:24;23.90;;;13.25;;
69765;SDS011;57039;48.014;21.384;2022-12-07T04:58:27;24.40;;;12.65;;
69765;SDS011;57039;48.014;21.384;2022-12-07T04:59:30;24.87;;;13.10;;
69765;SDS011;57039;48.014;21.384;2022-12-07T05:00:33;24.95;;;12.70;;
69765;SDS011;57039;48.014;21.384;2022-12-07T05:01:36;23.45;;;12.63;;
69765;SDS011;57039;48.014;21.384;2022-12-07T05:02:39;25.12;;;13.60;;
69765;SDS011;57039;48.014;21.384;2022-12-07T05:03:42;22.73;;;12.18;;
69765;SDS011;57039;48.014;21.384;2022-12-07T05:04:45;26.27;;;13.43;;
69765;SDS011;57039;48.014;21.384;2022-12-07T05:05:48;25.42;;;13.65;;
69765;SDS011;57039;48.014;21.384;2022-12-07T05:06:50;22.53;;;11.87;;
69765;SDS011;57039;48.014;21.384;2022-12-07T05:07:53;25.33;;;13.23;;
69765;SDS011;57039;48.014;21.384;2022-12-07T05:08:56;25.92;;;13.25;;
69765;SDS011;57039;48.014;21.384;2022-12-07T05:09:59;24.63;;;12.85;;
69765;SDS011;57039;48.014;21.384;2022-12-07T05:11:04;25.27;;;13.30;;
69765;SDS011;57039;48.014;21.384;2022-12-07T05:12:07;26.98;;;14.30;;
69765;SDS011;57039;48.014;21.384;2022-12-07T05:13:10;21.65;;;12.75;;
69765;SDS011;57039;48.014;21.384;2022-12-07T05:14:15;23.70;;;12.07;;
69765;SDS011;57039;48.014;21.384;2022-12-07T05:15:22;25.98;;;12.60;;
69765;SDS011;57039;48.014;21.384;2022-12-07T05:16:25;22.98;;;12.77;;
69765;SDS011;57039;48.014;21.384;2022-12-07T05:17:28;23.53;;;12.87;;
69765;SDS011;57039;48.014;21.384;2022-12-07T05:18:31;27.23;;;13.90;;
69765;SDS011;57039;48.014;21.384;2022-12-07T05:19:34;23.40;;;12.35;;
69765;SDS011;57039;48.014;21.384;2022-12-07T05:20:37;37.13;;;16.85;;
69765;SDS011;57039;48.014;21.384;2022-12-07T05:21:44;35.00;;;16.00;;
69765;SDS011;57039;48.014;21.384;2022-12-07T05:22:47;25.05;;;14.40;;
69765;SDS011;57039;48.014;21.384;2022-12-07T05:23:50;24.25;;;12.73;;
69765;SDS011;57039;48.014;21.384;2022-12-07T05:25:13;83.32;;;33.90;;
69765;SDS011;57039;48.014;21.384;2022-12-07T05:26:16;56.58;;;26.08;;
69765;SDS011;57039;48.014;21.384;2022-12-07T05:27:19;36.83;;;18.87;;
69765;SDS011;57039;48.014;21.384;2022-12-07T05:28:22;43.23;;;21.23;;
69765;SDS011;57039;48.014;21.384;2022-12-07T05:29:24;31.85;;;16.33;;
69765;SDS011;57039;48.014;21.384;2022-12-07T05:30:27;28.65;;;16.05;;
69765;SDS011;57039;48.014;21.384;2022-12-07T05:31:31;25.50;;;14.30;;
69765;SDS011;57039;48.014;21.384;2022-12-07T05:32:35;26.85;;;13.60;;
69765;SDS011;57039;48.014;21.384;2022-12-07T05:33:37;23.67;;;14.70;;
69765;SDS011;57039;48.014;21.384;2022-12-07T05:34:40;26.65;;;14.70;;
69765;SDS011;57039;48.014;21.384;2022-12-07T05:35:43;26.33;;;14.80;;
69765;SDS011;57039;48.014;21.384;2022-12-07T05:36:45;30.33;;;14.68;;
69765;SDS011;57039;48.014;21.384;2022-12-07T05:37:49;27.95;;;14.98;;
69765;SDS011;57039;48.014;21.384;2022-12-07T05:38:53;25.60;;;13.73;;
69765;SDS011;57039;48.014;21.384;2022-12-07T05:39:56;26.67;;;14.35;;
69765;SDS011;57039;48.014;21.384;2022-12-07T05:41:00;26.35;;;14.93;;
69765;SDS011;57039;48.014;21.384;2022-12-07T05:42:04;25.70;;;14.05;;
69765;SDS011;57039;48.014;21.384;2022-12-07T05:43:23;24.83;;;13.48;;
69765;SDS011;57039;48.014;21.384;2022-12-07T05:44:25;26.85;;;13.60;;
69765;SDS011;57039;48.014;21.384;2022-12-07T05:45:28;25.33;;;13.90;;
69765;SDS011;57039;48.014;21.384;2022-12-07T05:46:32;27.00;;;14.65;;
69765;SDS011;57039;48.014;21.384;2022-12-07T05:47:35;27.35;;;14.77;;
69765;SDS011;57039;48.014;21.384;2022-12-07T05:48:39;25.20;;;14.13;;
69765;SDS011;57039;48.014;21.384;2022-12-07T05:49:42;28.40;;;15.37;;
69765;SDS011;57039;48.014;21.384;2022-12-07T05:50:47;28.12;;;16.45;;
69765;SDS011;57039;48.014;21.384;2022-12-07T05:51:50;26.30;;;15.40;;
69765;SDS011;57039;48.014;21.384;2022-12-07T05:52:53;30.08;;;15.48;;
69765;SDS011;57039;48.014;21.384;2022-12-07T05:53:56;30.85;;;15.82;;
69765;SDS011;57039;48.014;21.384;2022-12-07T05:54:59;27.15;;;14.95;;
69765;SDS011;57039;48.014;21.384;2022-12-07T05:56:02;33.50;;;17.50;;
69765;SDS011;57039;48.014;21.384;2022-12-07T05:57:05;40.90;;;26.42;;
69765;SDS011;57039;48.014;21.384;2022-12-07T05:58:07;27.83;;;16.37;;
69765;SDS011;57039;48.014;21.384;2022-12-07T05:59:29;51.72;;;33.38;;
69765;SDS011;57039;48.014;21.384;2022-12-07T06:00:32;51.20;;;34.43;;
69765;SDS011;57039;48.014;21.384;2022-12-07T06:01:35;38.45;;;24.55;;
69765;SDS011;57039;48.014;21.384;2022-12-07T06:02:38;36.40;;;21.27;;
69765;SDS011;57039;48.014;21.384;2022-12-07T06:03:40;33.38;;;21.17;;
69765;SDS011;57039;48.014;21.384;2022-12-07T06:04:45;43.40;;;23.35;;
69765;SDS011;57039;48.014;21.384;2022-12-07T06:05:48;46.83;;;27.05;;
69765;SDS011;57039;48.014;21.384;2022-12-07T06:06:51;69.03;;;38.85;;
69765;SDS011;57039;48.014;21.384;2022-12-07T06:07:55;91.63;;;54.08;;
69765;SDS011;57039;48.014;21.384;2022-12-07T06:09:03;87.90;;;54.40;;
69765;SDS011;57039;48.014;21.384;2022-12-07T06:10:07;52.95;;;33.67;;
69765;SDS011;57039;48.014;21.384;2022-12-07T06:11:10;45.03;;;28.13;;
69765;SDS011;57039;48.014;21.384;2022-12-07T06:12:31;39.30;;;24.23;;
69765;SDS011;57039;48.014;21.384;2022-12-07T06:13:37;35.70;;;19.52;;
69765;SDS011;57039;48.014;21.384;2022-12-07T06:14:48;36.30;;;22.80;;
69765;SDS011;57039;48.014;21.384;2022-12-07T06:15:51;33.80;;;20.35;;
69765;SDS011;57039;48.014;21.384;2022-12-07T06:16:53;32.80;;;21.10;;
69765;SDS011;57039;48.014;21.384;2022-12-07T06:17:57;31.10;;;19.45;;
69765;SDS011;57039;48.014;21.384;2022-12-07T06:19:00;30.42;;;17.37;;
69765;SDS011;57039;48.014;21.384;2022-12-07T06:20:06;34.42;;;17.87;;
69765;SDS011;57039;48.014;21.384;2022-12-07T06:21:18;30.75;;;17.77;;
69765;SDS011;57039;48.014;21.384;2022-12-07T06:22:20;39.70;;;18.23;;
69765;SDS011;57039;48.014;21.384;2022-12-07T06:23:23;29.60;;;18.00;;
69765;SDS011;57039;48.014;21.384;2022-12-07T06:24:26;32.83;;;17.37;;
69765;SDS011;57039;48.014;21.384;2022-12-07T06:25:29;31.30;;;17.42;;
69765;SDS011;57039;48.014;21.384;2022-12-07T06:26:32;33.30;;;19.02;;
69765;SDS011;57039;48.014;21.384;2022-12-07T06:27:35;32.90;;;19.40;;
69765;SDS011;57039;48.014;21.384;2022-12-07T06:28:38;33.30;;;20.00;;
69765;SDS011;57039;48.014;21.384;2022-12-07T06:29:41;32.50;;;18.77;;
69765;SDS011;57039;48.014;21.384;2022-12-07T06:30:43;26.62;;;16.08;;
69765;SDS011;57039;48.014;21.384;2022-12-07T06:31:46;30.98;;;19.02;;
69765;SDS011;57039;48.014;21.384;2022-12-07T06:32:49;31.50;;;18.03;;
69765;SDS011;57039;48.014;21.384;2022-12-07T06:33:56;27.20;;;15.70;;
69765;SDS011;57039;48.014;21.384;2022-12-07T06:35:02;28.35;;;15.75;;
69765;SDS011;57039;48.014;21.384;2022-12-07T06:36:06;27.13;;;15.25;;
69765;SDS011;57039;48.014;21.384;2022-12-07T06:37:10;31.08;;;15.90;;
69765;SDS011;57039;48.014;21.384;2022-12-07T06:38:12;27.77;;;14.77;;
69765;SDS011;57039;48.014;21.384;2022-12-07T06:39:15;27.30;;;15.25;;
69765;SDS011;57039;48.014;21.384;2022-12-07T06:40:18;30.00;;;16.65;;
69765;SDS011;57039;48.014;21.384;2022-12-07T06:41:21;30.45;;;17.08;;
69765;SDS011;57039;48.014;21.384;2022-12-07T06:42:23;28.35;;;14.95;;
69765;SDS011;57039;48.014;21.384;2022-12-07T06:43:26;32.97;;;17.03;;
69765;SDS011;57039;48.014;21.384;2022-12-07T06:44:29;35.58;;;17.90;;
69765;SDS011;57039;48.014;21.384;2022-12-07T06:45:32;34.40;;;18.77;;
69765;SDS011;57039;48.014;21.384;2022-12-07T06:46:35;39.65;;;20.10;;
69765;SDS011;57039;48.014;21.384;2022-12-07T06:47:39;40.25;;;22.08;;
69765;SDS011;57039;48.014;21.384;2022-12-07T06:48:45;40.53;;;21.58;;
69765;SDS011;57039;48.014;21.384;2022-12-07T06:49:48;40.42;;;20.35;;
69765;SDS011;57039;48.014;21.384;2022-12-07T06:50:51;34.42;;;18.83;;
69765;SDS011;57039;48.014;21.384;2022-12-07T06:51:56;34.30;;;18.50;;
69765;SDS011;57039;48.014;21.384;2022-12-07T06:52:59;40.00;;;20.08;;
69765;SDS011;57039;48.014;21.384;2022-12-07T06:54:03;40.83;;;21.53;;
69765;SDS011;57039;48.014;21.384;2022-12-07T06:55:06;42.33;;;20.73;;
69765;SDS011;57039;48.014;21.384;2022-12-07T06:56:09;36.55;;;18.73;;
69765;SDS011;57039;48.014;21.384;2022-12-07T06:57:12;34.92;;;18.55;;